Time;durP1;ratioP1;P1;durP2;ratioP2;P2;SDS_P1;SDS_P2;PMS_P1;PMS_P2;Temp;Humidity;BMP_temperature;BMP_pressure;BME280_temperature;BME280_humidity;BME280_pressure;Samples;Min_cycle;Max_cycle;Signal;HPM_P1;HPM_P2
2023/02/24 00:00:30;;;;;;;37.20;21.38;;;;;;;;;;4963928;28;20054;-57
2023/02/24 00:02:58;;;;;;;34.78;20.98;;;;;;;;;;4973947;28;20045;-57
2023/02/24 00:05:23;;;;;;;34.60;20.15;;;;;;;;;;4974058;28;20023;-62
2023/02/24 00:07:49;;;;;;;34.60;20.10;;;;;;;;;;4974077;28;20045;-62
2023/02/24 00:10:19;;;;;;;36.53;20.73;;;;;;;;;;4973903;28;20386;-62
2023/02/24 00:12:46;;;;;;;36.15;20.58;;;;;;;;;;4974427;28;20038;-62
2023/02/24 00:15:14;;;;;;;30.13;19.10;;;;;;;;;;4956441;28;20029;-62
2023/02/24 00:17:40;;;;;;;33.38;19.42;;;;;;;;;;4973862;28;20097;-61
2023/02/24 00:20:06;;;;;;;31.05;19.23;;;;;;;;;;4973781;28;20034;-62
2023/02/24 00:22:32;;;;;;;29.98;19.08;;;;;;;;;;4973990;28;20033;-61
2023/02/24 00:25:01;;;;;;;38.00;20.98;;;;;;;;;;4974142;28;20031;-56
2023/02/24 00:27:27;;;;;;;36.28;21.27;;;;;;;;;;4973959;28;20034;-56
2023/02/24 00:29:52;;;;;;;38.60;21.30;;;;;;;;;;4956574;28;20035;-56
2023/02/24 00:32:19;;;;;;;39.92;21.55;;;;;;;;;;4974048;28;20027;-56
2023/02/24 00:34:47;;;;;;;37.63;21.05;;;;;;;;;;4956638;28;20106;-56
2023/02/24 00:37:14;;;;;;;39.58;20.80;;;;;;;;;;4958113;28;20074;-56
2023/02/24 00:39:40;;;;;;;41.25;20.90;;;;;;;;;;4975812;28;20033;-56
2023/02/24 00:42:06;;;;;;;38.55;20.00;;;;;;;;;;4993278;28;20031;-56
2023/02/24 00:44:42;;;;;;;30.55;17.83;;;;;;;;;;4993090;28;20033;-57
2023/02/24 00:47:09;;;;;;;31.27;17.08;;;;;;;;;;4993296;28;20030;-56
2023/02/24 00:49:35;;;;;;;25.90;15.15;;;;;;;;;;4993231;28;20025;-56
2023/02/24 00:52:06;;;;;;;23.92;15.52;;;;;;;;;;4993004;28;20030;-56
2023/02/24 00:54:34;;;;;;;21.85;13.57;;;;;;;;;;4993657;28;20097;-56
2023/02/24 00:57:01;;;;;;;28.33;15.95;;;;;;;;;;4994106;28;20042;-56
2023/02/24 00:59:26;;;;;;;26.38;15.82;;;;;;;;;;4993865;28;20112;-57
2023/02/24 01:01:53;;;;;;;30.48;16.70;;;;;;;;;;4992905;28;20109;-57
2023/02/24 01:04:19;;;;;;;29.20;16.10;;;;;;;;;;4995522;28;20018;-56
2023/02/24 01:06:49;;;;;;;31.63;15.45;;;;;;;;;;4979010;28;20030;-56
2023/02/24 01:09:16;;;;;;;30.70;15.97;;;;;;;;;;4979089;28;20026;-56
2023/02/24 01:14:32;;;;;;;36.72;18.52;;;;;;;;;;4996636;28;20053;-56
2023/02/24 01:16:58;;;;;;;32.05;17.35;;;;;;;;;;4996706;28;20054;-56
2023/02/24 01:19:30;;;;;;;26.58;16.50;;;;;;;;;;4963044;28;20478;-56
2023/02/24 01:22:02;;;;;;;34.25;17.13;;;;;;;;;;4979031;28;20030;-57
2023/02/24 01:24:28;;;;;;;29.60;15.07;;;;;;;;;;4979166;28;20029;-57
2023/02/24 01:26:53;;;;;;;32.00;16.50;;;;;;;;;;4996207;28;20041;-57
2023/02/24 01:29:21;;;;;;;26.55;14.85;;;;;;;;;;4978749;28;20030;-57
2023/02/24 01:31:49;;;;;;;28.77;15.82;;;;;;;;;;4996267;28;20038;-56
2023/02/24 01:34:16;;;;;;;25.77;14.38;;;;;;;;;;4978850;28;20030;-56
2023/02/24 01:36:43;;;;;;;29.38;16.45;;;;;;;;;;4978692;28;20112;-56
2023/02/24 01:39:12;;;;;;;34.33;17.17;;;;;;;;;;4995284;28;20057;-56
2023/02/24 01:41:42;;;;;;;30.65;15.80;;;;;;;;;;4979554;28;20057;-56
2023/02/24 01:44:13;;;;;;;22.70;12.85;;;;;;;;;;4996698;28;20030;-56
2023/02/24 01:46:40;;;;;;;26.35;13.95;;;;;;;;;;4978578;28;20027;-56
2023/02/24 01:49:11;;;;;;;24.50;14.82;;;;;;;;;;4996016;28;20147;-56
2023/02/24 01:51:38;;;;;;;22.58;13.20;;;;;;;;;;4995940;28;20379;-56
2023/02/24 01:54:15;;;;;;;25.05;13.70;;;;;;;;;;4995885;28;20042;-56
2023/02/24 01:56:41;;;;;;;20.35;13.82;;;;;;;;;;4995980;28;20036;-58
2023/02/24 01:59:09;;;;;;;22.15;13.55;;;;;;;;;;4995737;28;20089;-58
2023/02/24 02:01:41;;;;;;;21.77;11.93;;;;;;;;;;4995637;28;20026;-58
2023/02/24 02:04:35;;;;;;;21.88;12.88;;;;;;;;;;4995646;28;20038;-58
2023/02/24 02:07:01;;;;;;;23.52;14.40;;;;;;;;;;4995758;28;20035;-58
2023/02/24 02:09:31;;;;;;;27.38;14.85;;;;;;;;;;4995572;28;20382;-58
2023/02/24 02:11:56;;;;;;;20.38;13.13;;;;;;;;;;4995888;28;20045;-58
2023/02/24 02:14:23;;;;;;;26.13;14.40;;;;;;;;;;4977883;28;20038;-59
2023/02/24 02:17:01;;;;;;;25.63;14.48;;;;;;;;;;4978320;28;20045;-59
2023/02/24 02:19:41;;;;;;;26.00;14.95;;;;;;;;;;4995368;28;20485;-64
2023/02/24 02:22:11;;;;;;;19.23;13.73;;;;;;;;;;4995335;28;20061;-63
2023/02/24 02:24:42;;;;;;;23.98;14.38;;;;;;;;;;4994737;28;20029;-63
2023/02/24 02:27:19;;;;;;;28.77;16.15;;;;;;;;;;4994841;28;20036;-64
2023/02/24 02:29:55;;;;;;;24.80;14.15;;;;;;;;;;4977769;28;20038;-61
2023/02/24 02:32:39;;;;;;;21.13;12.23;;;;;;;;;;4977925;28;20105;-64
2023/02/24 02:35:13;;;;;;;23.20;12.63;;;;;;;;;;4977504;28;20049;-63
2023/02/24 02:37:38;;;;;;;26.20;13.90;;;;;;;;;;4977092;28;20069;-63
2023/02/24 02:40:36;;;;;;;23.15;12.82;;;;;;;;;;4976942;28;20070;-63
2023/02/24 02:43:04;;;;;;;20.50;12.60;;;;;;;;;;4973686;28;20044;-63
2023/02/24 02:45:39;;;;;;;22.65;12.35;;;;;;;;;;4977032;28;20425;-63
2023/02/24 02:48:07;;;;;;;22.10;12.10;;;;;;;;;;4977286;28;20476;-64
2023/02/24 02:50:40;;;;;;;21.70;12.02;;;;;;;;;;4994637;28;20034;-58
2023/02/24 02:53:14;;;;;;;21.80;12.40;;;;;;;;;;4977176;28;20125;-58
2023/02/24 02:56:00;;;;;;;19.73;11.35;;;;;;;;;;4993990;28;20049;-58
2023/02/24 02:58:27;;;;;;;20.63;12.60;;;;;;;;;;4994114;28;20498;-58
2023/02/24 03:01:01;;;;;;;20.52;12.40;;;;;;;;;;4994679;28;20030;-58
2023/02/24 03:03:41;;;;;;;22.27;10.80;;;;;;;;;;4977288;28;20037;-58
2023/02/24 03:06:18;;;;;;;17.17;11.18;;;;;;;;;;4977481;28;20540;-58
2023/02/24 03:08:51;;;;;;;17.88;11.18;;;;;;;;;;4977142;28;20156;-58
2023/02/24 03:11:17;;;;;;;17.48;11.52;;;;;;;;;;4977432;28;20084;-58
2023/02/24 03:13:44;;;;;;;18.13;10.80;;;;;;;;;;4976938;28;20109;-58
2023/02/24 03:16:11;;;;;;;17.42;10.63;;;;;;;;;;4960919;28;20026;-58
2023/02/24 03:18:43;;;;;;;16.73;10.85;;;;;;;;;;4994086;28;20026;-58
2023/02/24 03:21:16;;;;;;;19.80;12.00;;;;;;;;;;4976572;28;20498;-58
2023/02/24 03:23:50;;;;;;;20.75;11.93;;;;;;;;;;4994218;28;20372;-58
2023/02/24 03:26:42;;;;;;;18.65;11.25;;;;;;;;;;4975955;28;20037;-58
2023/02/24 03:29:22;;;;;;;17.88;11.05;;;;;;;;;;4967163;28;20034;-58
2023/02/24 03:31:50;;;;;;;18.50;10.07;;;;;;;;;;4976611;28;20548;-59
2023/02/24 03:34:15;;;;;;;18.35;11.05;;;;;;;;;;4976621;28;20058;-58
2023/02/24 03:36:42;;;;;;;16.05;10.77;;;;;;;;;;4960592;28;20463;-58
2023/02/24 03:39:11;;;;;;;15.55;10.13;;;;;;;;;;4976358;28;20572;-58
2023/02/24 03:41:45;;;;;;;22.58;12.02;;;;;;;;;;4994095;28;20373;-58
2023/02/24 03:44:11;;;;;;;13.57;9.40;;;;;;;;;;4976602;28;20185;-58
2023/02/24 03:46:37;;;;;;;17.13;10.73;;;;;;;;;;4976490;28;20127;-58
2023/02/24 03:49:11;;;;;;;18.15;9.90;;;;;;;;;;4976577;28;20027;-58
2023/02/24 03:51:37;;;;;;;19.25;11.35;;;;;;;;;;4960212;28;20030;-58
2023/02/24 03:54:18;;;;;;;19.50;12.43;;;;;;;;;;4993589;28;20045;-59
2023/02/24 03:56:44;;;;;;;21.83;13.90;;;;;;;;;;4976045;28;20037;-58
2023/02/24 03:59:23;;;;;;;25.67;14.63;;;;;;;;;;4993571;28;20081;-58
2023/02/24 04:01:50;;;;;;;19.13;12.63;;;;;;;;;;4976033;28;20113;-58
2023/02/24 04:04:18;;;;;;;21.10;12.68;;;;;;;;;;4976050;28;20034;-59
2023/02/24 04:06:58;;;;;;;15.52;10.70;;;;;;;;;;4975962;28;20030;-58
2023/02/24 04:09:32;;;;;;;18.42;12.10;;;;;;;;;;4976330;28;20028;-58
2023/02/24 04:12:08;;;;;;;26.33;13.38;;;;;;;;;;4976096;28;20034;-59
2023/02/24 04:14:37;;;;;;;21.25;11.40;;;;;;;;;;4959946;28;20061;-59
2023/02/24 04:17:07;;;;;;;16.88;10.75;;;;;;;;;;4975997;28;20117;-59
2023/02/24 04:19:37;;;;;;;20.77;13.05;;;;;;;;;;4976079;28;20071;-59
2023/02/24 04:22:03;;;;;;;;;;;;;;;;;;4976753;28;20386;-56
2023/02/24 04:24:32;;;;;;;19.40;11.23;;;;;;;;;;4993408;28;19910;-56
2023/02/24 04:26:59;;;;;;;19.95;12.73;;;;;;;;;;4976010;28;20371;-56
2023/02/24 04:29:34;;;;;;;20.67;13.75;;;;;;;;;;4975881;28;20533;-57
2023/02/24 04:32:02;;;;;;;21.50;14.05;;;;;;;;;;4975434;28;20030;-56
2023/02/24 04:34:31;;;;;;;23.05;15.43;;;;;;;;;;4975742;28;20038;-62
2023/02/24 04:36:58;;;;;;;20.35;13.43;;;;;;;;;;4975837;28;20026;-62
2023/02/24 04:39:26;;;;;;;19.88;12.98;;;;;;;;;;4978520;28;20050;-56
2023/02/24 04:41:56;;;;;;;;;;;;;;;;;;4980167;28;20034;-57
2023/02/24 04:44:31;;;;;;;21.15;14.10;;;;;;;;;;4997134;28;19917;-56
2023/02/24 04:46:57;;;;;;;22.17;14.60;;;;;;;;;;4996948;28;20038;-56
2023/02/24 04:49:26;;;;;;;21.80;15.10;;;;;;;;;;4996942;28;20026;-56
2023/02/24 04:51:51;;;;;;;22.23;15.23;;;;;;;;;;4996679;28;20041;-56
2023/02/24 04:54:17;;;;;;;19.67;13.80;;;;;;;;;;4997020;28;20034;-57
2023/02/24 04:56:46;;;;;;;23.15;16.55;;;;;;;;;;4996868;28;20066;-56
2023/02/24 04:59:12;;;;;;;17.63;14.40;;;;;;;;;;4996688;28;20041;-57
2023/02/24 05:01:38;;;;;;;24.60;15.82;;;;;;;;;;4996348;28;20117;-57
2023/02/24 05:04:05;;;;;;;20.27;15.05;;;;;;;;;;4996036;28;20180;-62
2023/02/24 05:06:31;;;;;;;22.63;14.68;;;;;;;;;;4996557;28;20133;-62
2023/02/24 05:09:00;;;;;;;17.13;11.45;;;;;;;;;;4996466;28;20450;-62
2023/02/24 05:11:26;;;;;;;20.25;15.05;;;;;;;;;;4996122;28;20049;-62
2023/02/24 05:13:55;;;;;;;23.45;16.80;;;;;;;;;;4996514;28;20073;-63
2023/02/24 05:16:21;;;;;;;25.67;19.05;;;;;;;;;;4963221;28;20432;-61
2023/02/24 05:18:46;;;;;;;22.17;17.17;;;;;;;;;;4995427;28;20070;-61
2023/02/24 05:23:58;;;;;;;27.90;19.10;;;;;;;;;;4997122;28;20045;-56
2023/02/24 05:26:25;;;;;;;30.45;20.00;;;;;;;;;;4979504;28;20045;-56
2023/02/24 05:28:52;;;;;;;27.02;19.42;;;;;;;;;;4996829;28;20030;-56
2023/02/24 05:31:25;;;;;;;24.63;16.20;;;;;;;;;;4996432;28;20081;-56
2023/02/24 05:33:56;;;;;;;20.25;12.93;;;;;;;;;;4997216;28;20042;-56
2023/02/24 05:36:22;;;;;;;16.38;13.15;;;;;;;;;;4997120;28;20035;-56
2023/02/24 05:38:54;;;;;;;14.07;11.30;;;;;;;;;;4997102;28;20050;-61
2023/02/24 05:41:19;;;;;;;17.80;12.55;;;;;;;;;;4996221;28;20045;-62
2023/02/24 05:43:47;;;;;;;20.08;13.07;;;;;;;;;;4995253;28;20046;-62
2023/02/24 05:46:15;;;;;;;15.55;12.32;;;;;;;;;;4995803;28;20081;-61
2023/02/24 05:48:41;;;;;;;11.88;10.43;;;;;;;;;;4994998;28;20077;-61
2023/02/24 05:51:09;;;;;;;14.77;11.75;;;;;;;;;;4996464;28;20035;-61
2023/02/24 05:53:40;;;;;;;15.07;11.23;;;;;;;;;;4979213;28;20426;-56
2023/02/24 05:56:06;;;;;;;15.38;12.05;;;;;;;;;;4979034;28;20080;-56
2023/02/24 05:58:32;;;;;;;15.82;11.65;;;;;;;;;;4979341;28;20370;-56
2023/02/24 06:01:05;;;;;;;14.48;10.95;;;;;;;;;;4996469;28;20038;-55
2023/02/24 06:03:34;;;;;;;14.93;11.40;;;;;;;;;;4978988;28;20150;-54
2023/02/24 06:06:04;;;;;;;17.23;11.50;;;;;;;;;;4996055;28;20037;-54
2023/02/24 06:08:40;;;;;;;17.45;12.43;;;;;;;;;;4996019;28;20042;-55
2023/02/24 06:11:07;;;;;;;16.60;12.13;;;;;;;;;;4994745;28;20485;-54
2023/02/24 06:13:37;;;;;;;19.10;13.18;;;;;;;;;;4995691;28;20037;-54
2023/02/24 06:16:03;;;;;;;20.63;12.35;;;;;;;;;;4995246;28;20034;-54
2023/02/24 06:18:29;;;;;;;15.85;11.05;;;;;;;;;;4994962;28;20106;-54
2023/02/24 06:20:54;;;;;;;12.50;9.30;;;;;;;;;;4994109;28;20109;-54
2023/02/24 06:23:19;;;;;;;12.52;8.20;;;;;;;;;;4993975;28;20098;-54
2023/02/24 06:25:46;;;;;;;15.10;9.45;;;;;;;;;;4992898;28;20037;-54
2023/02/24 06:28:13;;;;;;;19.05;11.95;;;;;;;;;;4994455;28;20034;-55
2023/02/24 06:30:38;;;;;;;15.73;11.13;;;;;;;;;;4976851;28;20034;-55
2023/02/24 06:33:04;;;;;;;17.65;11.65;;;;;;;;;;4994710;28;20088;-54
2023/02/24 06:35:31;;;;;;;15.65;10.88;;;;;;;;;;4993653;28;20053;-54
2023/02/24 06:37:57;;;;;;;14.23;10.82;;;;;;;;;;4993547;28;20069;-54
2023/02/24 06:40:23;;;;;;;14.10;10.23;;;;;;;;;;4993893;28;20725;-54
2023/02/24 06:42:52;;;;;;;15.27;10.10;;;;;;;;;;4975919;28;20038;-54
2023/02/24 06:45:18;;;;;;;14.90;10.60;;;;;;;;;;4993800;28;20038;-54
2023/02/24 06:47:47;;;;;;;13.38;10.23;;;;;;;;;;4977129;28;20276;-59
2023/02/24 06:50:13;;;;;;;13.02;10.25;;;;;;;;;;4994266;28;20076;-59
2023/02/24 06:52:39;;;;;;;12.23;10.25;;;;;;;;;;4994406;28;20411;-59
2023/02/24 06:55:05;;;;;;;12.43;10.25;;;;;;;;;;4995592;28;20030;-59
2023/02/24 06:57:33;;;;;;;13.95;10.75;;;;;;;;;;4995809;28;20117;-59
2023/02/24 06:59:59;;;;;;;12.15;9.40;;;;;;;;;;4995673;28;20109;-59
2023/02/24 07:02:28;;;;;;;15.10;10.80;;;;;;;;;;4994709;28;20160;-60
2023/02/24 07:08:29;;;;;;;13.63;11.38;;;;;;;;;;4995375;28;20321;-60
2023/02/24 07:14:30;;;;;;;14.45;10.77;;;;;;;;;;4995514;28;20102;-59
2023/02/24 07:20:33;;;;;;;16.40;12.68;;;;;;;;;;4995106;28;20121;-55
2023/02/24 07:26:34;;;;;;;22.42;14.15;;;;;;;;;;4995285;28;20509;-55
2023/02/24 07:32:37;;;;;;;17.95;13.43;;;;;;;;;;4995156;28;20391;-55
2023/02/24 07:42:12;;;;;;;13.85;10.38;;;;;;;;;;4994701;28;20033;-55
2023/02/24 07:48:20;;;;;;;14.35;10.63;;;;;;;;;;4994930;28;20029;-55
2023/02/24 07:54:22;;;;;;;18.33;10.70;;;;;;;;;;4994839;28;20033;-59
2023/02/24 08:00:26;;;;;;;14.30;9.95;;;;;;;;;;4994705;28;20069;-59
2023/02/24 08:06:37;;;;;;;16.15;11.43;;;;;;;;;;4994452;28;20033;-55
2023/02/24 08:12:41;;;;;;;17.15;12.10;;;;;;;;;;4994504;28;20025;-55
2023/02/24 08:18:47;;;;;;;16.23;11.82;;;;;;;;;;4994842;28;20142;-55
2023/02/24 08:35:43;;;;;;;14.82;11.00;;;;;;;;;;4994390;28;20024;-55
2023/02/24 08:45:38;;;;;;;19.65;12.10;;;;;;;;;;4994105;28;20293;-55
2023/02/24 08:51:42;;;;;;;18.77;12.88;;;;;;;;;;4994254;28;20092;-55
2023/02/24 08:57:50;;;;;;;17.75;12.35;;;;;;;;;;4994218;28;20029;-55
2023/02/24 09:04:11;;;;;;;19.25;13.13;;;;;;;;;;4915312;29;20035;-55
2023/02/24 09:10:16;;;;;;;17.10;13.07;;;;;;;;;;4993836;28;20028;-55
2023/02/24 09:16:18;;;;;;;18.63;13.07;;;;;;;;;;4994043;28;20401;-54
2023/02/24 09:39:09;;;;;;;20.50;12.98;;;;;;;;;;4997351;28;20046;-59
2023/02/24 09:49:38;;;;;;;;;;;;;;;;;;4997409;28;20053;-59
2023/02/24 10:02:58;;;;;;;21.48;14.00;;;;;;;;;;4996849;28;20239;-59
2023/02/24 10:09:46;;;;;;;22.45;14.75;;;;;;;;;;4975366;28;20038;-55
2023/02/24 10:29:45;;;;;;;23.55;15.30;;;;;;;;;;4880072;29;20138;-54
2023/02/24 10:35:45;;;;;;;19.88;13.00;;;;;;;;;;4880609;29;20492;-55
2023/02/24 10:41:47;;;;;;;20.00;12.98;;;;;;;;;;4898079;29;20047;-59
2023/02/24 11:07:10;;;;;;;22.10;14.10;;;;;;;;;;4954964;29;20033;-59
2023/02/24 11:17:25;;;;;;;21.85;14.27;;;;;;;;;;4916908;29;20039;-54
2023/02/24 11:23:28;;;;;;;20.90;13.95;;;;;;;;;;4916460;29;20096;-55
2023/02/24 11:29:30;;;;;;;22.45;14.38;;;;;;;;;;4927309;29;20498;-54
2023/02/24 11:35:35;;;;;;;19.25;13.18;;;;;;;;;;4954496;28;20403;-59
2023/02/24 11:41:41;;;;;;;22.10;14.25;;;;;;;;;;4985361;28;20239;-59
2023/02/24 11:44:15;;;;;;;17.30;11.52;;;;;;;;;;4995080;28;20043;-59
2023/02/24 11:54:47;;;;;;;16.60;11.48;;;;;;;;;;4994945;28;20035;-55
2023/02/24 12:00:51;;;;;;;19.52;14.43;;;;;;;;;;4994659;28;20150;-55
2023/02/24 12:07:03;;;;;;;21.80;15.63;;;;;;;;;;4994676;28;20098;-55
2023/02/24 12:13:09;;;;;;;22.15;15.27;;;;;;;;;;4994372;28;20040;-55
2023/02/24 12:19:13;;;;;;;19.67;14.30;;;;;;;;;;4994274;28;20147;-55
2023/02/24 12:25:15;;;;;;;17.95;12.07;;;;;;;;;;4994477;28;20057;-55
2023/02/24 13:07:46;;;;;;;19.80;12.20;;;;;;;;;;4918988;29;20435;-56
2023/02/24 13:14:04;;;;;;;26.80;15.93;;;;;;;;;;4918559;29;20458;-55
2023/02/24 13:20:13;;;;;;;18.95;13.35;;;;;;;;;;4918657;29;20188;-57
2023/02/24 13:26:21;;;;;;;17.80;10.57;;;;;;;;;;4941074;28;20522;-61
2023/02/24 13:32:27;;;;;;;18.92;12.60;;;;;;;;;;4977950;28;20055;-55
2023/02/24 14:38:44;;;;;;;19.35;12.40;;;;;;;;;;5017485;28;19912;-55
2023/02/24 14:41:21;;;;;;;19.92;12.88;;;;;;;;;;4975292;28;20145;-55
2023/02/24 14:43:46;;;;;;;19.63;13.55;;;;;;;;;;4959407;28;20031;-57
2023/02/24 14:46:12;;;;;;;25.60;15.38;;;;;;;;;;4958857;28;20499;-57
2023/02/24 14:48:37;;;;;;;23.10;15.90;;;;;;;;;;4975739;28;20039;-57
2023/02/24 14:51:12;;;;;;;13.80;11.13;;;;;;;;;;4974593;28;20030;-57
2023/02/24 14:53:42;;;;;;;15.52;11.80;;;;;;;;;;4975385;28;20039;-57
2023/02/24 14:56:10;;;;;;;12.77;9.05;;;;;;;;;;4975430;28;20042;-57
2023/02/24 14:58:41;;;;;;;12.60;9.25;;;;;;;;;;4958091;28;20042;-56
2023/02/24 15:01:15;;;;;;;14.98;10.65;;;;;;;;;;4974473;28;20054;-56
2023/02/24 15:03:45;;;;;;;18.95;12.18;;;;;;;;;;4975500;28;20452;-56
2023/02/24 15:06:14;;;;;;;18.85;13.32;;;;;;;;;;4975653;28;20447;-61
2023/02/24 15:08:41;;;;;;;17.63;12.93;;;;;;;;;;4975443;28;20517;-61
2023/02/24 15:11:15;;;;;;;17.92;12.73;;;;;;;;;;4975271;28;20049;-61
2023/02/24 15:13:42;;;;;;;15.57;11.77;;;;;;;;;;4974922;28;20047;-61
2023/02/24 15:16:17;;;;;;;15.68;12.10;;;;;;;;;;4958028;28;20041;-61
2023/02/24 15:18:43;;;;;;;15.13;10.63;;;;;;;;;;4974836;28;20043;-56
2023/02/24 15:21:17;;;;;;;16.38;10.73;;;;;;;;;;4974183;28;20053;-56
2023/02/24 15:23:43;;;;;;;13.05;10.05;;;;;;;;;;4973589;28;20038;-56
2023/02/24 15:26:31;;;;;;;17.25;13.75;;;;;;;;;;4974599;28;20043;-56
2023/02/24 15:28:57;;;;;;;20.40;15.00;;;;;;;;;;4974061;28;20035;-56
2023/02/24 15:31:23;;;;;;;26.75;17.25;;;;;;;;;;4975166;28;20031;-56
2023/02/24 15:33:59;;;;;;;27.55;20.00;;;;;;;;;;4974885;28;20039;-56
2023/02/24 15:36:27;;;;;;;28.63;20.25;;;;;;;;;;4974688;28;20046;-56
2023/02/24 15:38:54;;;;;;;36.42;24.35;;;;;;;;;;4974852;28;20058;-56
2023/02/24 15:41:19;;;;;;;38.55;26.30;;;;;;;;;;4975218;28;20066;-61
2023/02/24 15:43:54;;;;;;;36.35;24.98;;;;;;;;;;4974209;28;20676;-61
2023/02/24 15:46:20;;;;;;;31.42;21.50;;;;;;;;;;4974947;28;20035;-61
2023/02/24 15:48:46;;;;;;;30.70;19.48;;;;;;;;;;4957517;28;20034;-61
2023/02/24 15:51:24;;;;;;;28.70;19.63;;;;;;;;;;4957235;28;20093;-61
2023/02/24 15:53:50;;;;;;;35.05;22.80;;;;;;;;;;4974911;28;20065;-61
2023/02/24 15:56:16;;;;;;;28.23;18.88;;;;;;;;;;4974370;28;20419;-61
2023/02/24 15:58:42;;;;;;;22.70;16.38;;;;;;;;;;4957271;28;20062;-61
2023/02/24 16:01:11;;;;;;;33.30;23.05;;;;;;;;;;4957272;28;20043;-61
2023/02/24 16:03:36;;;;;;;30.50;21.00;;;;;;;;;;4974160;28;20025;-61
2023/02/24 16:06:01;;;;;;;29.88;20.33;;;;;;;;;;4940872;28;20031;-61
2023/02/24 16:08:27;;;;;;;19.48;13.75;;;;;;;;;;4974981;28;20471;-62
2023/02/24 16:10:52;;;;;;;27.90;20.77;;;;;;;;;;4973781;28;20043;-61
2023/02/24 16:13:20;;;;;;;32.72;21.75;;;;;;;;;;4973758;28;20129;-61
2023/02/24 16:15:45;;;;;;;34.80;23.30;;;;;;;;;;4973539;28;20030;-56
2023/02/24 16:18:18;;;;;;;39.22;26.83;;;;;;;;;;4973888;28;20487;-56
2023/02/24 16:20:47;;;;;;;38.97;25.77;;;;;;;;;;4989008;28;20074;-56
2023/02/24 16:23:13;;;;;;;31.85;22.23;;;;;;;;;;4973066;28;20038;-56
2023/02/24 16:25:43;;;;;;;29.95;21.42;;;;;;;;;;4973507;28;20039;-56
2023/02/24 16:28:15;;;;;;;28.42;20.63;;;;;;;;;;4973644;28;20039;-56
2023/02/24 16:30:40;;;;;;;26.70;19.13;;;;;;;;;;4967570;28;20499;-56
2023/02/24 16:33:10;;;;;;;22.48;16.23;;;;;;;;;;4974389;28;20074;-56
2023/02/24 16:35:37;;;;;;;26.35;17.75;;;;;;;;;;4977239;28;20375;-57
2023/02/24 16:38:03;;;;;;;25.80;18.70;;;;;;;;;;4977821;28;20086;-56
2023/02/24 16:40:32;;;;;;;27.75;19.00;;;;;;;;;;4946253;29;20142;-56
2023/02/24 16:42:59;;;;;;;31.70;20.67;;;;;;;;;;4958467;29;20047;-56
2023/02/24 16:45:26;;;;;;;28.13;18.08;;;;;;;;;;4959183;29;20115;-56
2023/02/24 16:47:51;;;;;;;24.15;15.77;;;;;;;;;;4959176;29;20027;-56
2023/02/24 16:50:21;;;;;;;17.10;10.70;;;;;;;;;;4959196;29;20038;-56
2023/02/24 16:52:47;;;;;;;18.45;11.15;;;;;;;;;;4959523;29;20032;-56
2023/02/24 16:55:13;;;;;;;15.77;11.18;;;;;;;;;;4959140;29;20396;-56
2023/02/24 16:57:39;;;;;;;19.38;14.23;;;;;;;;;;4941596;29;20059;-56
2023/02/24 17:00:05;;;;;;;17.48;11.48;;;;;;;;;;4958909;29;20546;-57
2023/02/24 17:02:30;;;;;;;16.92;12.50;;;;;;;;;;4957698;29;20521;-56
2023/02/24 17:04:55;;;;;;;18.80;13.45;;;;;;;;;;4958076;29;20058;-56
2023/02/24 17:07:21;;;;;;;16.30;11.15;;;;;;;;;;4959155;29;20045;-56
2023/02/24 17:09:46;;;;;;;13.77;10.00;;;;;;;;;;4941284;29;20098;-56
2023/02/24 17:12:12;;;;;;;17.27;11.95;;;;;;;;;;4958820;29;20047;-56
2023/02/24 17:14:37;;;;;;;16.58;12.70;;;;;;;;;;4957618;29;20047;-56
2023/02/24 17:17:03;;;;;;;14.88;11.10;;;;;;;;;;4958468;29;20051;-56
2023/02/24 17:19:28;;;;;;;16.67;12.50;;;;;;;;;;4958874;29;20479;-55
2023/02/24 17:21:53;;;;;;;17.42;13.27;;;;;;;;;;4959021;29;20114;-55
2023/02/24 17:24:19;;;;;;;18.98;13.75;;;;;;;;;;4958811;29;20047;-55
2023/02/24 17:26:44;;;;;;;20.80;14.95;;;;;;;;;;4958676;29;20043;-55
2023/02/24 17:29:12;;;;;;;20.02;14.07;;;;;;;;;;4958737;29;20085;-55
2023/02/24 17:31:38;;;;;;;20.63;14.15;;;;;;;;;;4958501;29;20086;-55
2023/02/24 17:34:03;;;;;;;17.17;12.13;;;;;;;;;;4941274;29;20643;-55
2023/02/24 17:36:29;;;;;;;20.50;13.93;;;;;;;;;;4958663;29;20047;-56
2023/02/24 17:38:55;;;;;;;37.38;18.63;;;;;;;;;;4958164;28;20038;-60
2023/02/24 17:41:20;;;;;;;37.72;21.30;;;;;;;;;;4940750;29;20035;-56
2023/02/24 17:43:48;;;;;;;7.97;5.70;;;;;;;;;;4957844;29;20033;-56
2023/02/24 17:46:14;;;;;;;6.93;5.25;;;;;;;;;;4939910;29;20475;-56
2023/02/24 17:48:39;;;;;;;10.48;6.05;;;;;;;;;;4957801;29;20067;-60
2023/02/24 17:51:04;;;;;;;8.77;6.80;;;;;;;;;;4957897;29;20127;-60
2023/02/24 17:53:30;;;;;;;13.07;7.55;;;;;;;;;;4940836;29;20452;-60
2023/02/24 17:56:03;;;;;;;12.95;8.63;;;;;;;;;;4958387;29;20046;-61
2023/02/24 17:58:28;;;;;;;11.98;8.70;;;;;;;;;;4956809;29;20057;-56
2023/02/24 18:00:54;;;;;;;7.57;5.32;;;;;;;;;;4940807;29;20483;-56
2023/02/24 18:03:21;;;;;;;11.60;6.82;;;;;;;;;;4941369;29;20023;-56
2023/02/24 18:05:47;;;;;;;12.10;9.20;;;;;;;;;;4957993;29;20039;-56
2023/02/24 18:08:12;;;;;;;16.50;10.40;;;;;;;;;;4958294;29;20036;-56
2023/02/24 18:10:37;;;;;;;13.30;10.07;;;;;;;;;;4958257;29;20043;-56
2023/02/24 18:13:03;;;;;;;15.95;9.70;;;;;;;;;;4957941;29;20126;-56
2023/02/24 18:15:28;;;;;;;19.15;11.73;;;;;;;;;;4957744;29;20019;-56
2023/02/24 18:17:54;;;;;;;23.48;15.25;;;;;;;;;;4957417;29;20043;-56
2023/02/24 18:20:20;;;;;;;19.38;13.15;;;;;;;;;;4957962;29;20365;-56
2023/02/24 18:22:46;;;;;;;22.13;14.23;;;;;;;;;;4957896;29;20049;-56
2023/02/24 18:25:12;;;;;;;39.80;23.95;;;;;;;;;;4958006;29;20493;-56
2023/02/24 18:27:37;;;;;;;51.40;30.63;;;;;;;;;;4956598;29;20383;-56
2023/02/24 18:30:05;;;;;;;41.10;25.08;;;;;;;;;;4939810;29;20047;-56
2023/02/24 18:32:32;;;;;;;20.00;14.68;;;;;;;;;;4957374;29;20074;-55
2023/02/24 18:34:57;;;;;;;23.17;15.93;;;;;;;;;;4957251;29;20035;-56
2023/02/24 18:37:23;;;;;;;23.92;17.02;;;;;;;;;;4956743;29;20039;-56
2023/02/24 18:39:51;;;;;;;14.48;12.10;;;;;;;;;;4947907;28;20069;-56
2023/02/24 18:42:17;;;;;;;9.48;8.50;;;;;;;;;;4976260;28;20038;-56
2023/02/24 18:44:43;;;;;;;10.73;8.57;;;;;;;;;;4976362;28;20093;-56
2023/02/24 18:47:08;;;;;;;9.65;6.80;;;;;;;;;;4976005;28;20081;-56
2023/02/24 18:49:36;;;;;;;7.97;7.10;;;;;;;;;;4958867;28;20404;-56
2023/02/24 18:52:04;;;;;;;12.45;9.52;;;;;;;;;;4958711;28;20399;-56
2023/02/24 18:54:29;;;;;;;16.85;12.80;;;;;;;;;;4975839;28;20047;-57
2023/02/24 18:56:54;;;;;;;16.15;11.77;;;;;;;;;;4974886;28;20027;-56
2023/02/24 18:59:20;;;;;;;13.23;10.15;;;;;;;;;;4976444;28;20035;-57
2023/02/24 19:01:45;;;;;;;15.38;11.82;;;;;;;;;;4958757;28;20045;-56
2023/02/24 19:04:12;;;;;;;19.67;12.68;;;;;;;;;;4958831;28;20381;-56
2023/02/24 19:06:37;;;;;;;19.13;14.52;;;;;;;;;;4975769;28;20122;-61
2023/02/24 19:09:08;;;;;;;21.30;15.77;;;;;;;;;;4975839;28;20578;-61
2023/02/24 19:11:34;;;;;;;13.50;9.48;;;;;;;;;;4975810;28;20043;-61
2023/02/24 19:14:00;;;;;;;9.30;7.72;;;;;;;;;;4975631;28;20042;-62
2023/02/24 19:16:25;;;;;;;12.40;8.18;;;;;;;;;;4958312;28;20054;-61
2023/02/24 19:18:52;;;;;;;11.73;7.90;;;;;;;;;;4975091;28;20045;-61
2023/02/24 19:21:17;;;;;;;11.00;7.93;;;;;;;;;;4975807;28;20521;-61
2023/02/24 19:23:43;;;;;;;15.75;11.00;;;;;;;;;;4975457;28;20035;-61
2023/02/24 19:26:21;;;;;;;21.75;13.70;;;;;;;;;;4975709;28;20513;-61
2023/02/24 19:28:48;;;;;;;22.80;15.50;;;;;;;;;;4975649;28;20055;-61
2023/02/24 19:31:17;;;;;;;29.38;16.60;;;;;;;;;;4975227;28;20031;-61
2023/02/24 19:33:43;;;;;;;35.15;23.98;;;;;;;;;;4975404;28;20043;-61
2023/02/24 19:36:08;;;;;;;36.63;23.60;;;;;;;;;;4957683;28;20129;-56
2023/02/24 19:38:34;;;;;;;59.78;32.47;;;;;;;;;;4974733;28;20046;-61
2023/02/24 19:40:59;;;;;;;70.18;41.35;;;;;;;;;;4974523;28;20038;-61
2023/02/24 19:43:25;;;;;;;104.82;61.60;;;;;;;;;;4957125;28;20074;-62
2023/02/24 19:45:50;;;;;;;93.00;58.22;;;;;;;;;;4974790;28;20502;-61
2023/02/24 19:48:16;;;;;;;142.48;91.10;;;;;;;;;;4975150;28;20031;-62
2023/02/24 19:50:41;;;;;;;133.27;85.20;;;;;;;;;;4974960;28;20034;-61
2023/02/24 19:53:07;;;;;;;109.57;67.40;;;;;;;;;;4974673;28;20027;-61
2023/02/24 19:55:32;;;;;;;88.25;53.33;;;;;;;;;;4975250;28;20039;-56
2023/02/24 19:57:58;;;;;;;54.15;36.88;;;;;;;;;;4974369;28;20038;-56
2023/02/24 20:00:29;;;;;;;54.58;35.53;;;;;;;;;;4941820;28;20042;-56
2023/02/24 20:02:54;;;;;;;49.47;32.85;;;;;;;;;;4957707;28;20137;-55
2023/02/24 20:05:21;;;;;;;41.03;29.75;;;;;;;;;;4975266;28;20121;-56
2023/02/24 20:07:47;;;;;;;34.70;21.77;;;;;;;;;;4974774;28;20035;-56
2023/02/24 20:10:14;;;;;;;39.22;22.42;;;;;;;;;;4974864;28;20154;-56
2023/02/24 20:12:40;;;;;;;40.38;23.38;;;;;;;;;;4974826;28;20047;-56
2023/02/24 20:15:06;;;;;;;45.10;31.80;;;;;;;;;;4974797;28;20035;-55